createdAt,value
2022-10-18T00:01:11.709Z,27.90
2022-10-18T00:03:44.093Z,27.67
2022-10-18T00:06:12.632Z,27.65
2022-10-18T00:08:41.371Z,26.40
2022-10-18T00:11:09.748Z,26.27
2022-10-18T00:13:38.503Z,28.08
2022-10-18T00:16:12.964Z,27.52
2022-10-18T00:18:41.996Z,27.80
2022-10-18T00:21:16.548Z,27.33
2022-10-18T00:23:45.842Z,27.27
2022-10-18T00:26:19.653Z,24.52
2022-10-18T00:28:53.397Z,24.88
2022-10-18T00:31:34.417Z,25.13
2022-10-18T00:34:10.260Z,27.10
2022-10-18T00:36:38.699Z,25.45
2022-10-18T00:39:08.938Z,26.05
2022-10-18T00:41:38.471Z,25.02
2022-10-18T00:44:11.430Z,24.55
2022-10-18T00:46:45.761Z,25.50
2022-10-18T00:49:22.877Z,24.25
2022-10-18T00:52:07.999Z,27.55
2022-10-18T00:54:39.648Z,24.73
2022-10-18T00:57:08.149Z,26.98
2022-10-18T00:59:36.838Z,25.20
2022-10-18T01:02:06.025Z,23.38
2022-10-18T01:04:34.880Z,25.48
2022-10-18T01:07:27.649Z,25.23
2022-10-18T01:10:17.298Z,25.88
2022-10-18T01:13:03.728Z,23.38
2022-10-18T01:15:40.378Z,25.38
2022-10-18T01:19:01.507Z,24.50
2022-10-18T01:21:56.258Z,22.33
2022-10-18T01:24:48.088Z,22.90
2022-10-18T01:27:46.257Z,22.52
2022-10-18T01:30:42.317Z,23.25
2022-10-18T01:33:28.459Z,22.08
2022-10-18T01:36:10.610Z,23.90
2022-10-18T01:38:39.338Z,22.70
2022-10-18T01:41:11.822Z,21.90
2022-10-18T01:43:44.299Z,22.48
2022-10-18T01:46:12.738Z,22.63
2022-10-18T01:48:41.308Z,22.63
2022-10-18T01:51:09.908Z,22.40
2022-10-18T01:53:38.599Z,20.38
2022-10-18T01:56:26.697Z,20.83
2022-10-18T01:59:16.888Z,21.38
2022-10-18T02:02:26.357Z,20.70
2022-10-18T02:05:04.567Z,20.27
2022-10-18T02:07:55.435Z,21.50
2022-10-18T02:11:00.279Z,18.67
2022-10-18T02:13:37.267Z,18.90
2022-10-18T02:16:12.499Z,20.08
2022-10-18T02:19:05.697Z,21.10
2022-10-18T02:21:34.458Z,21.13
2022-10-18T02:24:02.961Z,18.52
2022-10-18T02:26:31.640Z,19.75
2022-10-18T02:29:00.290Z,19.05
2022-10-18T02:31:47.235Z,19.63
2022-10-18T02:34:27.689Z,20.55
2022-10-18T02:37:01.542Z,21.00
2022-10-18T02:39:35.550Z,19.88
2022-10-18T02:42:09.200Z,20.00
2022-10-18T02:44:38.327Z,20.23
2022-10-18T02:47:08.651Z,19.92
2022-10-18T02:49:37.208Z,19.70
2022-10-18T02:52:05.918Z,19.30
2022-10-18T02:54:34.564Z,17.20
2022-10-18T02:57:03.287Z,18.52
2022-10-18T02:59:31.901Z,19.83
2022-10-18T03:02:00.597Z,19.77
2022-10-18T03:07:02.559Z,18.02
2022-10-18T03:09:30.952Z,19.40
2022-10-18T03:11:59.807Z,18.15
2022-10-18T03:14:28.137Z,19.60
2022-10-18T03:16:56.810Z,17.58
2022-10-18T03:19:25.257Z,18.65
2022-10-18T03:21:53.961Z,18.63
2022-10-18T03:24:22.395Z,18.40
2022-10-18T03:26:51.016Z,17.23
2022-10-18T03:29:19.497Z,18.00
2022-10-18T03:31:48.216Z,19.10
2022-10-18T03:34:18.067Z,19.15
2022-10-18T03:36:46.782Z,18.80
2022-10-18T03:39:15.368Z,17.92
2022-10-18T03:41:44.078Z,19.17
2022-10-18T03:44:12.517Z,19.15
2022-10-18T03:46:41.199Z,18.98
2022-10-18T03:49:09.668Z,20.17
2022-10-18T03:51:38.348Z,20.23
2022-10-18T03:54:06.968Z,18.67
2022-10-18T03:56:35.597Z,19.85
2022-10-18T03:59:04.788Z,21.38
2022-10-18T04:01:33.594Z,20.58
2022-10-18T04:04:02.038Z,21.30
2022-10-18T04:06:30.688Z,19.75
2022-10-18T04:08:59.115Z,21.33
2022-10-18T04:11:27.751Z,20.17
2022-10-18T04:13:56.339Z,21.45
2022-10-18T04:16:25.110Z,21.35
2022-10-18T04:18:53.636Z,20.90
2022-10-18T04:21:22.399Z,21.85
2022-10-18T04:23:51.077Z,21.05
2022-10-18T04:26:19.828Z,21.80
2022-10-18T04:28:48.338Z,21.48
2022-10-18T04:31:16.927Z,25.00
2022-10-18T04:33:45.427Z,21.15
2022-10-18T04:36:14.136Z,21.17
2022-10-18T04:38:42.647Z,20.90
2022-10-18T04:41:11.330Z,21.40
2022-10-18T04:43:39.843Z,22.73
2022-10-18T04:46:08.632Z,19.13
2022-10-18T04:48:37.103Z,21.35
2022-10-18T04:51:05.932Z,21.88
2022-10-18T04:53:34.497Z,20.35
2022-10-18T04:56:03.169Z,22.17
2022-10-18T04:58:31.646Z,21.25
2022-10-18T05:01:00.346Z,22.85
2022-10-18T05:03:28.839Z,21.60
2022-10-18T05:06:01.922Z,22.30
2022-10-18T05:08:33.029Z,22.52
2022-10-18T05:11:02.283Z,23.35
2022-10-18T05:14:20.931Z,21.73
2022-10-18T05:16:49.747Z,21.85
2022-10-18T05:19:18.374Z,20.90
2022-10-18T05:21:47.389Z,19.48
2022-10-18T05:24:15.908Z,20.00
2022-10-18T05:26:44.569Z,20.73
2022-10-18T05:29:13.192Z,21.42
2022-10-18T05:32:33.448Z,21.13
2022-10-18T05:35:27.402Z,23.05
2022-10-18T05:38:04.015Z,21.13
2022-10-18T05:40:38.890Z,21.40
2022-10-18T05:43:07.761Z,20.77
2022-10-18T05:45:36.301Z,21.88
2022-10-18T05:48:07.748Z,20.77
2022-10-18T05:50:39.535Z,22.15
2022-10-18T05:53:12.778Z,22.73
2022-10-18T05:56:02.150Z,19.88
2022-10-18T06:01:03.029Z,21.58
2022-10-18T06:03:32.605Z,21.65
2022-10-18T06:06:06.493Z,21.13
2022-10-18T06:08:35.809Z,20.80
2022-10-18T06:11:19.282Z,22.42
2022-10-18T06:13:50.524Z,20.48
2022-10-18T06:16:22.272Z,20.58
2022-10-18T06:18:56.170Z,19.70
2022-10-18T06:21:25.341Z,18.60
2022-10-18T06:23:58.152Z,20.25
2022-10-18T06:26:27.971Z,20.45
2022-10-18T06:28:57.146Z,21.20
2022-10-18T06:31:26.116Z,19.80
2022-10-18T06:33:58.620Z,20.27
2022-10-18T06:36:27.670Z,21.77
2022-10-18T06:38:57.180Z,19.75
2022-10-18T06:41:26.230Z,20.98
2022-10-18T06:43:57.672Z,20.90
2022-10-18T06:46:26.581Z,21.40
2022-10-18T06:48:55.411Z,20.30
2022-10-18T06:51:24.212Z,22.17
2022-10-18T06:54:06.326Z,20.25
2022-10-18T06:56:41.742Z,22.50
2022-10-18T06:59:10.622Z,21.67
2022-10-18T07:01:39.314Z,23.40
2022-10-18T07:04:08.171Z,23.20
2022-10-18T07:06:36.943Z,23.55
2022-10-18T07:09:05.811Z,23.60
2022-10-18T07:11:34.830Z,23.70
2022-10-18T07:14:05.403Z,23.88
2022-10-18T07:16:34.806Z,25.20
2022-10-18T07:19:03.752Z,24.42
2022-10-18T07:21:32.334Z,24.55
2022-10-18T07:24:01.178Z,25.55
2022-10-18T07:26:33.507Z,26.00
2022-10-18T07:29:08.228Z,23.92
2022-10-18T07:31:38.756Z,24.08
2022-10-18T07:34:09.006Z,24.38
2022-10-18T07:36:37.670Z,23.90
2022-10-18T07:39:06.366Z,24.85
2022-10-18T07:41:35.144Z,26.02
2022-10-18T07:44:04.704Z,25.85
2022-10-18T07:46:33.318Z,25.30
2022-10-18T07:49:02.197Z,23.17
2022-10-18T07:51:32.950Z,26.60
2022-10-18T07:54:02.167Z,25.17
2022-10-18T07:56:30.907Z,23.92
2022-10-18T07:58:59.977Z,24.63
2022-10-18T08:01:28.728Z,25.25
2022-10-18T08:04:03.241Z,24.02
2022-10-18T08:06:35.196Z,23.77
2022-10-18T08:09:04.317Z,22.58
2022-10-18T08:11:33.076Z,23.38
2022-10-18T08:14:01.826Z,23.33
2022-10-18T08:19:02.460Z,22.83
2022-10-18T08:21:31.482Z,23.67
2022-10-18T08:24:01.130Z,25.15
2022-10-18T08:26:29.716Z,26.40
2022-10-18T08:29:17.788Z,25.30
2022-10-18T08:31:47.227Z,26.23
2022-10-18T08:34:19.533Z,29.13
2022-10-18T08:36:48.455Z,28.25
2022-10-18T08:39:17.286Z,25.77
2022-10-18T08:42:01.350Z,24.67
2022-10-18T08:44:32.350Z,25.25
2022-10-18T08:47:04.606Z,25.30
2022-10-18T08:49:51.113Z,27.42
2022-10-18T08:52:35.392Z,27.10
2022-10-18T08:55:24.749Z,27.80
2022-10-18T08:57:53.557Z,28.45
2022-10-18T09:00:31.079Z,29.45
2022-10-18T09:03:28.023Z,29.20
2022-10-18T09:06:15.994Z,27.85
2022-10-18T09:09:01.979Z,26.77
2022-10-18T09:12:12.429Z,25.60
2022-10-18T09:14:50.310Z,29.25
2022-10-18T09:17:43.419Z,30.33
2022-10-18T09:20:27.611Z,31.57
2022-10-18T09:23:16.439Z,29.77
2022-10-18T09:26:22.157Z,27.83
2022-10-18T09:29:38.379Z,29.58
2022-10-18T09:32:31.436Z,27.83
2022-10-18T09:37:35.159Z,27.25
2022-10-18T09:40:26.508Z,25.80
2022-10-18T09:43:07.819Z,27.90
2022-10-18T09:45:38.194Z,27.30
2022-10-18T09:48:41.053Z,27.33
2022-10-18T09:51:17.899Z,25.20
2022-10-18T09:54:19.569Z,24.85
2022-10-18T09:57:06.186Z,23.20
2022-10-18T09:59:47.173Z,24.52
2022-10-18T10:02:18.740Z,23.27
2022-10-18T10:04:47.468Z,23.60
2022-10-18T10:07:22.380Z,22.00
2022-10-18T10:10:09.300Z,21.63
2022-10-18T10:12:40.292Z,21.85
2022-10-18T10:15:13.335Z,21.88
2022-10-18T10:17:42.160Z,20.45
2022-10-18T10:20:22.231Z,24.33
2022-10-18T10:22:51.401Z,19.50
2022-10-18T10:25:31.628Z,19.55
2022-10-18T10:28:06.882Z,19.15
2022-10-18T10:30:37.761Z,19.70
2022-10-18T10:33:06.753Z,19.73
2022-10-18T10:35:54.071Z,20.42
2022-10-18T10:38:28.690Z,18.33
2022-10-18T10:40:57.991Z,18.23
2022-10-18T10:43:43.779Z,19.48
2022-10-18T10:46:14.371Z,20.05
2022-10-18T10:49:21.038Z,18.15
2022-10-18T10:52:02.547Z,17.98
2022-10-18T10:54:50.325Z,16.70
2022-10-18T10:57:29.881Z,16.42
2022-10-18T11:00:00.143Z,16.25
2022-10-18T11:02:36.364Z,16.02
2022-10-18T11:05:29.902Z,15.25
2022-10-18T11:08:01.149Z,14.82
2022-10-18T11:10:35.579Z,13.88
2022-10-18T11:13:53.401Z,14.93
2022-10-18T11:16:37.223Z,14.35
2022-10-18T11:19:41.371Z,13.13
2022-10-18T11:22:20.962Z,12.90
2022-10-18T11:24:49.630Z,14.35
2022-10-18T11:27:28.414Z,12.25
2022-10-18T11:30:20.352Z,12.45
2022-10-18T11:33:16.712Z,12.68
2022-10-18T11:35:52.831Z,12.90
2022-10-18T11:38:55.541Z,13.20
2022-10-18T11:41:38.829Z,12.98
2022-10-18T11:44:21.913Z,12.60
2022-10-18T11:47:20.035Z,12.30
2022-10-18T11:50:39.154Z,12.68
2022-10-18T11:53:13.922Z,14.45
2022-10-18T11:56:17.755Z,15.45
2022-10-18T11:59:21.835Z,15.13
2022-10-18T12:02:20.869Z,16.05
2022-10-18T12:05:18.865Z,15.32
2022-10-18T12:07:57.747Z,16.90
2022-10-18T12:10:39.258Z,18.02
2022-10-18T12:13:23.511Z,17.15
2022-10-18T12:15:52.230Z,17.90
2022-10-18T12:18:23.721Z,18.60
2022-10-18T12:20:56.843Z,18.60
2022-10-18T12:23:44.721Z,18.75
2022-10-18T12:26:13.373Z,17.75
2022-10-18T12:28:51.154Z,18.13
2022-10-18T12:31:50.613Z,17.02
2022-10-18T12:34:22.391Z,17.60
2022-10-18T12:37:17.476Z,19.08
2022-10-18T12:40:21.339Z,20.50
2022-10-18T12:42:52.034Z,21.85
2022-10-18T12:45:35.332Z,23.15
2022-10-18T12:48:07.906Z,22.80
2022-10-18T12:50:42.859Z,29.13
2022-10-18T12:53:27.891Z,26.10
2022-10-18T12:55:56.942Z,25.80
2022-10-18T12:58:32.950Z,28.45
2022-10-18T13:01:05.209Z,27.25
2022-10-18T13:03:52.350Z,27.95
2022-10-18T13:06:21.551Z,27.73
2022-10-18T13:09:10.617Z,26.52
2022-10-18T13:11:39.500Z,26.80
2022-10-18T13:15:20.469Z,26.92
2022-10-18T13:18:04.990Z,26.33
2022-10-18T13:21:14.971Z,28.30
2022-10-18T13:24:07.041Z,28.10
2022-10-18T13:27:04.132Z,26.35
2022-10-18T13:30:08.170Z,24.95
2022-10-18T13:32:40.535Z,25.60
2022-10-18T13:36:00.587Z,24.10
2022-10-18T13:38:50.720Z,25.58
2022-10-18T13:41:21.531Z,27.23
2022-10-18T13:44:11.671Z,27.05
2022-10-18T13:46:40.559Z,28.20
2022-10-18T13:49:19.990Z,27.15
2022-10-18T13:52:22.379Z,27.10
2022-10-18T13:55:16.641Z,27.08
2022-10-18T13:58:16.859Z,27.38
2022-10-18T14:01:31.115Z,29.23
2022-10-18T14:04:34.530Z,28.48
2022-10-18T14:07:05.260Z,27.02
2022-10-18T14:09:49.984Z,31.40
2022-10-18T14:12:44.690Z,29.60
2022-10-18T14:15:35.939Z,30.60
2022-10-18T14:18:41.679Z,31.60
2022-10-18T14:21:21.833Z,32.63
2022-10-18T14:23:51.281Z,32.85
2022-10-18T14:26:21.124Z,33.80
2022-10-18T14:29:06.814Z,32.28
2022-10-18T14:31:36.080Z,31.55
2022-10-18T14:34:04.860Z,32.05
2022-10-18T14:36:42.879Z,31.90
2022-10-18T14:39:24.410Z,32.92
2022-10-18T14:41:55.702Z,34.35
2022-10-18T14:44:32.320Z,32.85
2022-10-18T14:47:31.704Z,33.58
2022-10-18T14:50:01.370Z,33.60
2022-10-18T14:52:35.690Z,34.35
2022-10-18T14:55:05.539Z,37.75
2022-10-18T14:57:37.631Z,35.60
2022-10-18T15:00:14.654Z,33.63
2022-10-18T15:02:44.059Z,31.48
2022-10-18T15:05:21.748Z,31.95
2022-10-18T15:07:51.856Z,31.20
2022-10-18T15:10:34.077Z,31.33
2022-10-18T15:13:09.746Z,34.13
2022-10-18T15:15:39.207Z,31.73
2022-10-18T15:18:08.098Z,34.08
2022-10-18T15:20:42.768Z,31.10
2022-10-18T15:23:27.368Z,32.13
2022-10-18T15:26:27.610Z,35.63
2022-10-18T15:29:00.504Z,33.85
2022-10-18T15:31:43.400Z,33.00
2022-10-18T15:34:24.720Z,33.67
2022-10-18T15:36:56.382Z,33.60
2022-10-18T15:39:27.689Z,30.85
2022-10-18T15:42:00.822Z,30.67
2022-10-18T15:44:48.019Z,29.25
2022-10-18T15:47:24.613Z,28.58
2022-10-18T15:49:56.789Z,28.77
2022-10-18T15:52:42.889Z,28.23
2022-10-18T15:55:29.586Z,27.30
2022-10-18T15:58:37.657Z,26.50
2022-10-18T16:01:14.041Z,28.02
2022-10-18T16:03:42.839Z,26.33
2022-10-18T16:06:14.659Z,26.33
2022-10-18T16:08:51.110Z,23.50
2022-10-18T16:11:25.134Z,24.90
2022-10-18T16:13:56.487Z,24.08
2022-10-18T16:16:29.104Z,24.10
2022-10-18T16:18:57.843Z,24.10
2022-10-18T16:21:32.454Z,25.83
2022-10-18T16:24:01.312Z,23.50
2022-10-18T16:26:30.168Z,25.58
2022-10-18T16:28:58.897Z,24.17
2022-10-18T16:31:30.870Z,24.88
2022-10-18T16:33:59.783Z,26.10
2022-10-18T16:36:31.839Z,23.42
2022-10-18T16:39:03.555Z,23.83
2022-10-18T16:41:32.472Z,25.73
2022-10-18T16:44:00.998Z,25.38
2022-10-18T16:46:33.153Z,25.58
2022-10-18T16:49:01.968Z,26.48
2022-10-18T16:51:30.880Z,27.08
2022-10-18T16:53:59.438Z,25.77
2022-10-18T16:56:30.860Z,27.52
2022-10-18T16:58:59.753Z,26.92
2022-10-18T17:01:28.740Z,26.23
2022-10-18T17:03:57.370Z,30.27
2022-10-18T17:06:30.770Z,30.42
2022-10-18T17:08:59.660Z,29.85
2022-10-18T17:11:28.858Z,31.08
2022-10-18T17:13:57.554Z,29.85
2022-10-18T17:16:34.501Z,32.25
2022-10-18T17:19:06.345Z,32.75
2022-10-18T17:21:35.179Z,33.35
2022-10-18T17:24:06.153Z,33.92
2022-10-18T17:26:34.972Z,33.10
2022-10-18T17:29:08.402Z,34.63
2022-10-18T17:31:37.329Z,36.53
2022-10-18T17:34:05.999Z,35.25
2022-10-18T17:36:35.644Z,34.47
2022-10-18T17:39:04.742Z,36.40
2022-10-18T17:41:33.588Z,36.03
2022-10-18T17:44:06.718Z,35.92
2022-10-18T17:46:35.690Z,34.58
2022-10-18T17:49:04.267Z,37.00
2022-10-18T17:51:33.114Z,38.60
2022-10-18T17:54:01.618Z,43.97
2022-10-18T17:56:33.702Z,41.47
2022-10-18T17:59:02.452Z,41.75
2022-10-18T18:01:31.387Z,40.67
2022-10-18T18:04:01.630Z,39.53
2022-10-18T18:06:35.960Z,40.58
2022-10-18T18:09:11.091Z,41.45
2022-10-18T18:11:42.241Z,40.35
2022-10-18T18:14:12.112Z,42.53
2022-10-18T18:16:43.991Z,42.25
2022-10-18T18:19:12.977Z,40.85
2022-10-18T18:21:42.744Z,40.85
2022-10-18T18:24:11.508Z,41.30
2022-10-18T18:26:40.637Z,42.05
2022-10-18T18:29:12.872Z,43.22
2022-10-18T18:31:44.117Z,41.67
2022-10-18T18:34:12.729Z,42.38
2022-10-18T18:36:41.523Z,41.22
2022-10-18T18:39:20.681Z,42.35
2022-10-18T18:41:51.083Z,43.60
2022-10-18T18:44:20.783Z,43.53
2022-10-18T18:46:49.730Z,44.40
2022-10-18T18:49:18.452Z,44.42
2022-10-18T18:51:47.373Z,45.83
2022-10-18T18:54:16.303Z,46.58
2022-10-18T18:56:45.049Z,47.78
2022-10-18T18:59:14.557Z,48.03
2022-10-18T19:01:44.030Z,49.80
2022-10-18T19:04:15.611Z,50.57
2022-10-18T19:06:45.446Z,52.20
2022-10-18T19:09:22.594Z,54.53
2022-10-18T19:11:53.392Z,52.55
2022-10-18T19:14:25.312Z,51.28
2022-10-18T19:19:29.044Z,48.95
2022-10-18T19:22:00.990Z,52.00
2022-10-18T19:24:32.922Z,50.47
2022-10-18T19:27:04.974Z,52.03
2022-10-18T19:29:36.649Z,53.78
2022-10-18T19:32:16.026Z,57.28
2022-10-18T19:34:45.028Z,51.33
2022-10-18T19:37:15.908Z,54.35
2022-10-18T19:39:45.266Z,53.28
2022-10-18T19:42:19.167Z,52.47
2022-10-18T19:44:52.233Z,53.75
2022-10-18T19:47:21.611Z,52.03
2022-10-18T19:49:51.135Z,51.08
2022-10-18T19:52:20.877Z,54.05
2022-10-18T19:54:50.527Z,50.95
2022-10-18T19:57:19.507Z,50.65
2022-10-18T19:59:48.515Z,52.33
2022-10-18T20:02:18.020Z,51.90
2022-10-18T20:04:46.889Z,50.22
2022-10-18T20:07:16.181Z,50.53
2022-10-18T20:09:44.781Z,51.67
2022-10-18T20:12:13.969Z,49.22
2022-10-18T20:14:43.179Z,49.60
2022-10-18T20:17:14.022Z,48.38
2022-10-18T20:19:43.424Z,49.72
2022-10-18T20:22:12.864Z,49.40
2022-10-18T20:24:41.828Z,50.80
2022-10-18T20:27:11.715Z,49.83
2022-10-18T20:29:40.530Z,51.50
2022-10-18T20:32:09.629Z,48.60
2022-10-18T20:34:38.356Z,49.22
2022-10-18T20:37:07.374Z,50.72
2022-10-18T20:39:35.910Z,50.17
2022-10-18T20:42:04.799Z,48.78
2022-10-18T20:44:34.188Z,46.08
2022-10-18T20:47:02.844Z,44.20
2022-10-18T20:49:31.153Z,44.75
2022-10-18T20:51:59.883Z,42.50
2022-10-18T20:54:28.225Z,41.88
2022-10-18T20:56:56.889Z,40.47
2022-10-18T20:59:25.241Z,41.80
2022-10-18T21:01:54.058Z,40.70
2022-10-18T21:04:22.861Z,41.08
2022-10-18T21:06:51.848Z,37.67
2022-10-18T21:09:20.451Z,40.33
2022-10-18T21:11:51.818Z,38.72
2022-10-18T21:14:22.627Z,40.25
2022-10-18T21:16:52.354Z,39.17
2022-10-18T21:19:26.520Z,40.28
2022-10-18T21:21:57.454Z,38.95
2022-10-18T21:24:26.683Z,39.63
2022-10-18T21:26:56.276Z,39.83
2022-10-18T21:29:25.160Z,39.58
2022-10-18T21:31:55.655Z,36.60
2022-10-18T21:34:24.553Z,38.80
2022-10-18T21:36:53.329Z,35.63
2022-10-18T21:41:53.455Z,37.70
2022-10-18T21:44:22.325Z,37.92
2022-10-18T21:46:51.304Z,38.45
2022-10-18T21:49:20.755Z,37.58
2022-10-18T21:51:49.775Z,37.13
2022-10-18T21:54:18.514Z,36.70
2022-10-18T21:56:47.344Z,38.05
2022-10-18T21:59:15.862Z,37.83
2022-10-18T22:01:45.843Z,36.40
2022-10-18T22:04:21.125Z,37.45
2022-10-18T22:06:50.240Z,38.08
2022-10-18T22:09:19.807Z,37.83
2022-10-18T22:11:52.326Z,34.97
2022-10-18T22:14:21.590Z,35.08
2022-10-18T22:16:51.290Z,36.95
2022-10-18T22:19:20.119Z,35.85
2022-10-18T22:21:49.189Z,36.35
2022-10-18T22:24:17.865Z,33.45
2022-10-18T22:26:47.268Z,35.20
2022-10-18T22:29:20.735Z,33.55
2022-10-18T22:31:52.033Z,34.13
2022-10-18T22:34:27.929Z,35.00
2022-10-18T22:36:57.227Z,34.65
2022-10-18T22:39:26.385Z,34.17
2022-10-18T22:41:56.787Z,34.08
2022-10-18T22:44:25.807Z,32.78
2022-10-18T22:46:54.786Z,32.92
2022-10-18T22:49:23.517Z,35.63
2022-10-18T22:51:52.550Z,36.05
2022-10-18T22:54:21.149Z,35.20
2022-10-18T22:56:50.644Z,35.05
2022-10-18T22:59:21.585Z,33.53
2022-10-18T23:01:50.355Z,33.70
2022-10-18T23:04:18.954Z,35.58
2022-10-18T23:06:47.811Z,34.75
2022-10-18T23:09:16.464Z,34.72
2022-10-18T23:11:47.294Z,33.72
2022-10-18T23:14:15.895Z,35.95
2022-10-18T23:16:44.666Z,34.78
2022-10-18T23:19:16.604Z,34.63
2022-10-18T23:21:45.486Z,34.17
2022-10-18T23:24:13.977Z,36.38
2022-10-18T23:26:42.774Z,35.22
2022-10-18T23:29:11.410Z,33.42
2022-10-18T23:31:40.273Z,33.88
2022-10-18T23:34:10.171Z,33.58
2022-10-18T23:36:38.965Z,34.70
2022-10-18T23:39:07.516Z,33.08
2022-10-18T23:41:36.396Z,35.63
2022-10-18T23:44:05.828Z,35.50
2022-10-18T23:46:34.624Z,34.40
2022-10-18T23:49:03.154Z,32.80
2022-10-18T23:51:31.994Z,33.22
2022-10-18T23:54:00.526Z,35.15
2022-10-18T23:56:29.295Z,34.85
2022-10-18T23:58:57.794Z,34.60
